Time;durP1;ratioP1;P1;durP2;ratioP2;P2;SDS_P1;SDS_P2;PMS_P1;PMS_P2;Temp;Humidity;BMP_temperature;BMP_pressure;BME280_temperature;BME280_humidity;BME280_pressure;Samples;Min_cycle;Max_cycle;Signal;HPM_P1;HPM_P2
2021/06/04 00:00:40;;;;;;;12.48;9.63;;;17.60;99.90;;;18.92;98.51;100986.97;4970623;28;20031;-82
2021/06/04 00:03:18;;;;;;;13.82;9.88;;;17.50;99.90;;;18.86;98.77;100991.44;4975172;28;20046;-81
2021/06/04 00:05:53;;;;;;;14.48;11.30;;;17.50;99.90;;;18.78;99.09;100986.19;5010549;28;20045;-81
2021/06/04 00:08:23;;;;;;;16.98;11.88;;;17.40;99.90;;;18.73;99.93;100987.41;4972920;28;20071;-84
2021/06/04 00:11:04;;;;;;;17.83;13.15;;;17.40;99.90;;;18.75;99.97;100984.97;4961530;29;20066;-84
2021/06/04 00:13:38;;;;;;;17.88;12.02;;;17.40;99.90;;;18.72;100.00;100982.16;4960899;29;20055;-85
2021/06/04 00:16:20;;;;;;;19.13;13.73;;;17.30;99.90;;;18.65;100.00;100982.16;4962582;28;20030;-84
2021/06/04 00:18:49;;;;;;;22.45;16.20;;;17.40;99.90;;;18.63;100.00;100973.25;4980877;28;20027;-84
2021/06/04 00:21:27;;;;;;;23.83;15.23;;;17.40;99.90;;;18.66;100.00;100967.59;4965937;28;20026;-84
2021/06/04 00:23:58;;;;;;;20.58;15.30;;;17.40;99.90;;;18.67;100.00;100972.06;4968145;28;20053;-84
2021/06/04 00:26:27;;;;;;;25.13;16.77;;;17.40;99.90;;;18.75;100.00;100956.66;4981468;28;20018;-86
2021/06/04 00:28:53;;;;;;;24.75;17.08;;;17.40;99.90;;;18.75;100.00;100965.16;4975717;28;20035;-85
2021/06/04 00:31:21;;;;;;;26.88;18.05;;;17.40;99.90;;;18.84;100.00;100962.75;4965880;28;20479;-88
2021/06/04 00:33:50;;;;;;;28.75;19.95;;;17.50;99.90;;;18.87;100.00;100952.63;4974970;28;20031;-88
2021/06/04 00:36:23;;;;;;;23.17;16.23;;;17.60;99.90;;;18.99;100.00;100948.53;4976234;28;20037;-82
2021/06/04 00:38:53;;;;;;;17.60;14.30;;;17.60;99.90;;;19.00;100.00;100947.34;4968441;29;20031;-82
2021/06/04 00:41:37;;;;;;;28.30;18.35;;;17.60;99.90;;;19.05;100.00;100958.22;4978792;28;20046;-84
2021/06/04 00:44:05;;;;;;;35.58;21.92;;;17.60;99.90;;;18.95;100.00;100942.88;4957869;28;20071;-86
2021/06/04 00:46:33;;;;;;;33.60;21.50;;;17.60;99.90;;;19.02;100.00;100956.22;4956954;29;20508;-86
2021/06/04 00:49:00;;;;;;;31.92;21.33;;;17.70;99.90;;;19.07;100.00;100950.94;4956007;29;20134;-84
2021/06/04 00:51:47;;;;;;;31.70;22.23;;;17.70;99.90;;;19.09;100.00;100951.34;4956238;28;20106;-83
2021/06/04 00:54:15;;;;;;;34.42;22.80;;;17.70;99.90;;;19.02;100.00;100951.38;4956257;29;20043;-84
2021/06/04 00:56:42;;;;;;;36.70;25.83;;;17.70;99.90;;;19.08;100.00;100958.22;4956952;28;20023;-85
2021/06/04 00:59:11;;;;;;;40.55;26.10;;;17.70;99.90;;;19.14;100.00;100955.78;4955498;29;20027;-86
2021/06/04 01:01:42;;;;;;;36.50;25.33;;;17.80;99.90;;;19.22;100.00;100958.19;4955646;28;20075;-85
2021/06/04 01:04:17;;;;;;;37.00;25.75;;;17.90;99.90;;;19.28;100.00;100961.41;4955135;29;20035;-84
2021/06/04 01:07:15;;;;;;;37.15;26.02;;;17.90;99.90;;;19.26;100.00;100959.00;4953996;29;20031;-84
2021/06/04 01:10:36;;;;;;;43.70;26.92;;;17.90;99.90;;;19.33;100.00;100958.94;4971867;28;20042;-86
2021/06/04 01:13:43;;;;;;;36.17;23.63;;;17.90;99.90;;;19.38;100.00;100961.38;4957283;28;20365;-85
2021/06/04 01:16:21;;;;;;;;;;;17.90;99.90;;;19.43;100.00;100968.66;4985336;28;20035;-82
2021/06/04 01:19:33;;;;;;;32.75;22.33;;;18.00;99.90;;;19.42;100.00;100972.72;4972554;29;19910;-86
2021/06/04 01:22:08;;;;;;;30.75;23.40;;;18.00;99.90;;;19.38;100.00;100969.06;4959403;28;20045;-85
2021/06/04 01:25:07;;;;;;;33.13;23.77;;;17.90;99.90;;;19.34;100.00;100965.41;4959732;29;20054;-85
2021/06/04 01:27:43;;;;;;;35.72;24.77;;;17.90;99.90;;;19.31;100.00;100971.91;4958653;29;20060;-85
2021/06/04 01:30:36;;;;;;;35.80;23.50;;;17.90;99.90;;;19.28;100.00;100975.56;4958004;28;20031;-82
2021/06/04 01:33:25;;;;;;;26.08;19.27;;;17.80;99.90;;;19.28;100.00;100967.06;4957899;28;20035;-83
2021/06/04 01:35:57;;;;;;;29.45;20.33;;;17.80;99.90;;;19.27;100.00;100974.75;4957797;29;20034;-83
2021/06/04 01:38:39;;;;;;;30.80;22.10;;;17.80;99.90;;;19.25;100.00;100971.53;4958487;29;20031;-85
2021/06/04 01:41:14;;;;;;;30.42;21.98;;;17.80;99.90;;;19.27;100.00;100973.94;4960297;28;20038;-85
2021/06/04 01:44:02;;;;;;;34.33;23.87;;;17.80;99.90;;;19.25;100.00;100970.72;4958992;29;20035;-82
2021/06/04 01:46:50;;;;;;;34.15;25.55;;;17.80;99.90;;;19.24;100.00;100977.59;4958495;29;20027;-85
2021/06/04 01:49:27;;;;;;;38.55;25.00;;;17.80;99.90;;;19.24;100.00;100978.41;4959546;28;20043;-85
2021/06/04 01:52:08;;;;;;;29.60;20.83;;;17.80;99.90;;;19.26;100.00;100983.66;4958362;28;20503;-85
2021/06/04 01:54:48;;;;;;;30.58;21.38;;;17.80;99.90;;;19.25;100.00;100976.38;4958301;29;20091;-83
2021/06/04 01:57:29;;;;;;;36.60;25.58;;;17.80;99.90;;;19.27;100.00;100988.09;4958298;29;20491;-84
2021/06/04 02:00:00;;;;;;;35.70;23.70;;;17.80;99.90;;;19.26;100.00;100980.84;4958033;29;20039;-83
2021/06/04 02:02:35;;;;;;;29.77;21.65;;;17.80;99.90;;;19.27;100.00;100988.09;4957774;28;20038;-84
2021/06/04 02:05:06;;;;;;;35.28;23.17;;;17.80;99.90;;;19.25;100.00;100977.19;4957685;28;20050;-83
2021/06/04 02:07:34;;;;;;;29.67;19.98;;;17.80;99.90;;;19.23;100.00;100982.44;4958414;28;20027;-85
2021/06/04 02:10:09;;;;;;;35.75;23.67;;;17.80;99.90;;;19.25;100.00;100985.69;4957499;29;20395;-83
2021/06/04 02:12:40;;;;;;;35.33;23.60;;;17.80;99.90;;;19.20;100.00;100977.59;4957829;28;20071;-84
2021/06/04 02:15:30;;;;;;;31.02;22.67;;;17.80;99.90;;;19.22;100.00;100995.00;4957281;29;20034;-85
2021/06/04 02:18:49;;;;;;;28.17;20.02;;;17.80;99.90;;;19.22;100.00;100995.00;4957268;29;20042;-84
2021/06/04 02:21:32;;;;;;;28.63;19.77;;;17.80;99.90;;;19.11;100.00;100988.53;4958862;28;20031;-85
2021/06/04 02:25:06;;;;;;;35.45;20.50;;;17.80;99.90;;;19.12;100.00;100990.16;4956929;29;20039;-84
2021/06/04 02:27:41;;;;;;;38.92;22.90;;;17.70;99.90;;;19.19;100.00;101001.50;4934429;28;20042;-85
2021/06/04 02:30:40;;;;;;;32.72;21.55;;;17.70;99.90;;;19.18;100.00;100994.19;4956932;29;20035;-82
2021/06/04 02:33:19;;;;;;;31.83;21.80;;;17.70;99.90;;;19.17;100.00;101000.28;4957013;28;20027;-84
2021/06/04 02:35:56;;;;;;;25.25;18.77;;;17.70;99.90;;;19.16;100.00;100998.66;4958854;28;20113;-84
2021/06/04 02:38:40;;;;;;;31.80;20.00;;;17.80;99.90;;;19.13;100.00;101000.28;4957361;29;20038;-86
2021/06/04 02:41:35;;;;;;;34.70;21.30;;;17.70;99.90;;;19.10;100.00;100992.63;4957509;28;20031;-86
2021/06/04 02:44:19;;;;;;;43.58;25.17;;;17.70;99.90;;;19.12;100.00;100992.19;4957283;29;20051;-84
2021/06/04 02:46:56;;;;;;;37.25;23.52;;;17.60;99.90;;;19.13;100.00;101000.28;4957499;29;20042;-83
2021/06/04 02:49:25;;;;;;;29.13;20.88;;;17.70;99.90;;;19.11;100.00;101001.88;4969570;28;20491;-87
2021/06/04 02:52:35;;;;;;;28.33;18.90;;;17.60;99.90;;;19.11;100.00;100999.88;4978276;28;20031;-85
2021/06/04 02:55:14;;;;;;;32.95;21.70;;;17.60;99.90;;;19.11;100.00;100993.41;4990535;28;20039;-85
2021/06/04 02:57:40;;;;;;;30.85;20.80;;;17.70;99.90;;;19.12;100.00;100995.84;4976742;28;20041;-84
2021/06/04 03:00:41;;;;;;;32.65;22.10;;;17.70;99.90;;;19.07;100.00;100998.28;4977153;28;20034;-88
2021/06/04 03:03:07;;;;;;;28.75;21.10;;;17.70;99.90;;;19.09;100.00;100993.00;4976361;28;20043;-85
2021/06/04 03:05:38;;;;;;;30.02;19.85;;;17.60;99.90;;;19.10;100.00;100995.44;4976902;28;20026;-86
2021/06/04 03:08:06;;;;;;;37.40;24.02;;;17.60;99.90;;;19.10;100.00;101000.28;4976862;28;20031;-86
2021/06/04 03:10:46;;;;;;;36.05;24.98;;;17.70;99.90;;;19.13;100.00;101011.63;4964296;28;20023;-84
2021/06/04 03:13:25;;;;;;;37.08;25.00;;;17.70;99.90;;;19.14;100.00;101003.91;4959649;29;20031;-84
2021/06/04 03:15:59;;;;;;;37.75;24.45;;;17.70;99.90;;;19.10;100.00;100994.63;4958935;29;20035;-84
2021/06/04 03:18:43;;;;;;;38.80;24.25;;;17.70;99.90;;;19.15;100.00;101011.19;4958725;28;20336;-87
2021/06/04 03:21:26;;;;;;;36.50;24.52;;;17.70;99.90;;;19.16;100.00;101005.13;4958653;28;20031;-84
2021/06/04 03:23:53;;;;;;;36.78;23.42;;;17.70;99.90;;;19.14;100.00;101009.56;4959297;29;20034;-85
2021/06/04 03:26:27;;;;;;;31.70;20.80;;;17.70;99.90;;;19.14;100.00;101016.03;4958192;29;20603;-85
2021/06/04 03:29:00;;;;;;;24.73;17.98;;;17.70;99.90;;;19.10;100.00;101025.78;4958314;28;20031;-83
2021/06/04 03:31:37;;;;;;;33.08;21.05;;;17.60;99.90;;;19.06;100.00;101019.31;4959095;28;20027;-84
2021/06/04 03:34:06;;;;;;;45.75;28.13;;;17.60;99.90;;;19.15;100.00;101028.19;4960115;28;20089;-82
2021/06/04 03:36:39;;;;;;;38.20;24.35;;;17.60;99.90;;;19.14;100.00;101032.22;4959831;29;20035;-86
2021/06/04 03:39:17;;;;;;;47.05;27.75;;;17.70;99.90;;;19.14;100.00;101035.88;4959224;28;20078;-85
2021/06/04 03:41:48;;;;;;;38.35;24.15;;;17.70;99.90;;;19.19;100.00;101041.13;4973205;28;20024;-85
2021/06/04 03:44:21;;;;;;;37.40;24.27;;;17.70;99.90;;;19.21;100.00;101049.19;4972869;28;20035;-87
2021/06/04 03:46:47;;;;;;;35.90;22.50;;;17.70;99.90;;;19.18;100.00;101045.16;4976414;28;20049;-82
2021/06/04 03:49:19;;;;;;;28.90;19.23;;;17.70;99.90;;;19.16;100.00;101049.63;4971333;28;20027;-84
2021/06/04 03:51:50;;;;;;;30.30;18.85;;;17.70;99.90;;;19.14;100.00;101061.34;4980319;28;20479;-84
2021/06/04 03:54:36;;;;;;;29.55;19.42;;;17.60;99.90;;;19.13;100.00;101047.59;4978220;28;20043;-85
2021/06/04 03:57:07;;;;;;;;;;;17.60;99.90;;;19.14;100.00;101052.84;4976833;28;20467;-83
2021/06/04 03:59:34;;;;;;;37.40;21.70;;;17.60;99.90;;;19.11;100.00;101050.03;4976303;28;20319;-84
2021/06/04 04:02:09;;;;;;;33.10;19.73;;;17.60;99.90;;;19.05;100.00;101040.31;4978210;28;20501;-84
2021/06/04 04:04:36;;;;;;;29.55;18.80;;;17.60;99.90;;;19.10;100.00;101054.91;4976050;28;20031;-86
2021/06/04 04:07:05;;;;;;;27.65;18.23;;;17.70;99.90;;;19.10;100.00;101048.44;4976657;28;20506;-84
2021/06/04 04:09:31;;;;;;;33.40;19.77;;;17.60;99.90;;;19.09;100.00;101039.13;4980192;28;20058;-87
2021/06/04 04:12:01;;;;;;;38.83;22.27;;;17.60;99.90;;;19.12;100.00;101046.78;4983380;28;20041;-86
2021/06/04 04:14:27;;;;;;;37.75;21.88;;;17.60;99.90;;;19.12;100.00;101041.13;4980082;28;20046;-85
2021/06/04 04:16:54;;;;;;;36.65;22.70;;;17.60;99.90;;;19.15;100.00;101048.00;4977546;28;20093;-84
2021/06/04 04:19:23;;;;;;;44.40;24.85;;;17.70;99.90;;;19.18;100.00;101056.50;4976724;28;20054;-83
2021/06/04 04:21:55;;;;;;;44.88;26.05;;;17.70;99.90;;;19.15;100.00;101043.16;4977429;28;20499;-84
2021/06/04 04:24:29;;;;;;;34.50;22.50;;;17.70;99.90;;;19.22;100.00;101053.66;4977464;28;20049;-83
2021/06/04 04:26:57;;;;;;;31.83;20.55;;;17.70;99.90;;;19.25;100.00;101062.16;4976903;28;20038;-83
2021/06/04 04:29:24;;;;;;;41.33;25.58;;;17.80;99.90;;;19.27;100.00;101065.38;4978367;28;20068;-84
2021/06/04 04:31:59;;;;;;;40.75;26.58;;;17.70;99.90;;;19.27;100.00;101062.53;4975711;28;20062;-83
2021/06/04 04:34:28;;;;;;;38.17;25.70;;;17.70;99.90;;;19.30;100.00;101066.56;4978072;28;20030;-85
2021/06/04 04:37:02;;;;;;;33.47;22.02;;;17.70;99.90;;;19.33;100.00;101048.75;4976558;28;20034;-87
2021/06/04 04:39:37;;;;;;;47.78;29.00;;;17.80;99.90;;;19.38;100.00;101057.69;4975843;28;20042;-85
2021/06/04 04:42:09;;;;;;;46.95;27.50;;;17.90;99.90;;;19.46;100.00;101059.28;4974330;28;20038;-85
2021/06/04 04:44:39;;;;;;;39.25;24.10;;;17.90;99.90;;;19.50;100.00;101064.13;4976545;28;20031;-85
2021/06/04 04:47:12;;;;;;;35.65;23.55;;;18.00;99.90;;;19.57;100.00;101066.94;4977241;28;20027;-81
2021/06/04 04:49:38;;;;;;;31.02;21.45;;;18.00;99.90;;;19.59;100.00;101058.84;4962148;28;20031;-85
2021/06/04 04:52:11;;;;;;;32.90;22.35;;;18.00;99.90;;;19.67;100.00;101066.94;4960016;28;20063;-88
2021/06/04 04:54:42;;;;;;;36.03;24.30;;;18.10;99.90;;;19.75;100.00;101060.00;4960061;29;20067;-83
2021/06/04 04:57:11;;;;;;;37.22;25.20;;;18.20;99.90;;;19.86;100.00;101066.44;4961428;28;20035;-85
2021/06/04 04:59:39;;;;;;;37.45;24.48;;;18.30;99.90;;;19.95;100.00;101075.31;4961669;28;20027;-84
2021/06/04 05:02:08;;;;;;;37.10;24.42;;;18.40;99.90;;;20.00;100.00;101066.38;4960151;28;20027;-84
2021/06/04 05:04:36;;;;;;;38.08;26.60;;;18.40;99.90;;;20.09;100.00;101053.78;4960544;28;20020;-83
2021/06/04 05:07:03;;;;;;;39.97;26.90;;;18.50;99.90;;;20.17;100.00;101061.81;4959801;28;20047;-86
2021/06/04 05:09:29;;;;;;;33.67;22.63;;;18.50;99.90;;;20.29;100.00;101060.59;4963849;28;20050;-83
2021/06/04 05:11:55;;;;;;;31.20;21.95;;;18.60;99.90;;;20.36;100.00;101066.19;4978026;28;20030;-83
2021/06/04 05:14:23;;;;;;;31.42;23.10;;;18.70;99.90;;;20.44;100.00;101064.94;4978471;28;20176;-83
2021/06/04 05:16:49;;;;;;;30.90;22.30;;;18.70;99.90;;;20.52;100.00;101067.31;4977271;28;20042;-86
2021/06/04 05:19:15;;;;;;;31.15;22.00;;;18.80;99.90;;;20.56;100.00;101064.44;4977795;28;20026;-85
2021/06/04 05:21:42;;;;;;;28.05;19.63;;;18.90;99.90;;;20.63;100.00;101075.75;4980228;28;20058;-85
2021/06/04 05:24:09;;;;;;;30.60;20.63;;;18.90;99.90;;;20.68;100.00;101080.97;4980815;28;20054;-85
2021/06/04 05:26:36;;;;;;;38.75;26.65;;;19.00;99.90;;;20.73;100.00;101086.22;4982810;28;20027;-84
2021/06/04 05:29:06;;;;;;;33.40;24.08;;;19.00;99.90;;;20.79;100.00;101083.75;4985577;28;20442;-82
2021/06/04 05:31:33;;;;;;;31.60;23.58;;;19.00;99.90;;;20.89;100.00;101080.03;4979950;28;20071;-83
2021/06/04 05:34:01;;;;;;;32.30;22.25;;;19.20;99.90;;;21.08;100.00;101076.59;4980011;28;20041;-83
2021/06/04 05:36:32;;;;;;;28.80;21.83;;;19.30;99.90;;;21.16;100.00;101075.31;4979409;28;20085;-84
2021/06/04 05:39:09;;;;;;;30.35;21.85;;;19.40;99.90;;;21.17;100.00;101071.28;4980095;28;20039;-85
2021/06/04 05:41:37;;;;;;;30.65;22.75;;;19.40;99.90;;;21.19;100.00;101070.88;4984884;28;20042;-85
2021/06/04 05:44:07;;;;;;;24.27;19.73;;;19.40;99.90;;;21.21;100.00;101074.88;4985461;28;20480;-85
2021/06/04 05:46:33;;;;;;;24.15;17.67;;;19.40;99.90;;;21.22;99.86;101075.69;4985503;28;20118;-87
2021/06/04 05:48:59;;;;;;;26.88;20.38;;;19.50;99.90;;;21.31;99.61;101085.34;4973266;28;20027;-87
2021/06/04 05:51:30;;;;;;;28.25;20.95;;;19.60;99.90;;;21.43;99.30;101095.38;4961425;28;20082;-87
2021/06/04 05:53:57;;;;;;;27.30;21.60;;;19.70;99.90;;;21.61;98.76;101106.56;4963204;28;20031;-88
2021/06/04 05:56:27;;;;;;;26.55;19.25;;;19.80;99.90;;;21.83;98.66;101102.25;4959440;29;20035;-90
2021/06/04 05:58:55;;;;;;;33.33;22.77;;;20.00;99.90;;;22.32;96.61;101103.66;4962512;28;20154;-87
2021/06/04 06:01:30;;;;;;;27.13;20.85;;;20.30;99.90;;;22.75;93.36;101104.69;4964820;28;20039;-85
2021/06/04 06:03:56;;;;;;;29.30;24.10;;;20.70;99.90;;;23.06;89.99;101103.34;4971835;28;20049;-79
2021/06/04 06:06:22;;;;;;;29.42;19.77;;;21.00;99.90;;;23.10;89.59;101103.28;4975993;29;20035;-86
2021/06/04 06:08:49;;;;;;;26.58;19.77;;;21.10;99.90;;;23.15;89.03;101105.63;4960139;28;20031;-85
2021/06/04 06:11:25;;;;;;;28.60;21.52;;;21.20;99.90;;;23.14;88.73;101106.91;4978019;28;20118;-85
2021/06/04 06:13:56;;;;;;;28.90;22.50;;;21.30;99.90;;;23.04;88.44;101105.84;4978160;28;20041;-86
2021/06/04 06:16:25;;;;;;;26.98;19.42;;;21.30;99.90;;;23.12;87.90;101106.50;4994654;28;20035;-87
2021/06/04 06:18:51;;;;;;;30.88;21.42;;;21.20;99.90;;;23.12;88.49;101111.41;4977817;28;20175;-86
2021/06/04 06:21:18;;;;;;;33.45;22.10;;;21.30;99.90;;;22.97;88.38;101108.78;4980228;28;20102;-84
2021/06/04 06:23:48;;;;;;;35.05;23.40;;;21.20;99.90;;;22.77;88.30;101107.09;4984274;28;20031;-83
2021/06/04 06:26:28;;;;;;;27.60;21.10;;;21.00;99.90;;;22.65;88.86;101108.47;4977461;28;20079;-85
2021/06/04 06:29:05;;;;;;;24.40;19.27;;;21.00;99.90;;;22.63;89.04;101122.34;4979201;28;20058;-84
2021/06/04 06:31:40;;;;;;;26.35;21.88;;;20.90;99.90;;;22.60;88.46;101109.75;4980575;28;20035;-84
2021/06/04 06:34:10;;;;;;;22.58;17.48;;;20.90;99.90;;;22.66;88.62;101112.16;4981903;28;20472;-84
2021/06/04 06:36:43;;;;;;;23.73;18.08;;;20.90;99.90;;;22.79;88.69;101114.00;4992850;28;20026;-82
2021/06/04 06:39:27;;;;;;;26.17;21.23;;;21.00;99.90;;;22.93;87.94;101116.59;4996106;28;20039;-86
2021/06/04 06:42:04;;;;;;;24.58;21.25;;;21.10;99.90;;;22.89;87.12;101110.13;4987088;28;20062;-82
2021/06/04 06:44:32;;;;;;;28.90;22.85;;;21.10;99.90;;;22.92;86.79;101120.69;5007657;23;20036;-83
2021/06/04 06:46:58;;;;;;;30.02;20.02;;;21.10;99.90;;;23.01;86.29;101126.66;4951395;29;20108;-86
2021/06/04 06:49:26;;;;;;;30.65;23.00;;;21.20;99.90;;;23.27;84.80;101118.47;4966720;29;20028;-86
2021/06/04 06:51:54;;;;;;;26.83;21.20;;;21.40;99.90;;;23.78;83.54;101120.00;4973154;29;20059;-85
2021/06/04 06:54:28;;;;;;;29.20;21.48;;;21.80;99.90;;;24.38;80.71;101119.56;4954474;29;20031;-84
2021/06/04 06:56:56;;;;;;;23.83;18.92;;;22.30;99.90;;;24.84;79.05;101121.38;4960901;28;20439;-84
2021/06/04 06:59:29;;;;;;;24.33;20.13;;;22.70;99.90;;;25.06;75.82;101131.03;4959901;28;20031;-85
2021/06/04 07:01:58;;;;;;;21.67;16.85;;;22.90;99.90;;;25.42;75.51;101130.13;4969092;28;20128;-87
2021/06/04 07:04:30;;;;;;;26.17;19.50;;;23.20;99.90;;;25.69;73.13;101137.16;4979921;28;20517;-86
2021/06/04 07:06:56;;;;;;;23.42;18.73;;;23.50;99.90;;;26.00;72.39;101133.88;4979675;28;20035;-84
2021/06/04 07:09:24;;;;;;;27.35;19.90;;;23.70;99.90;;;26.14;71.41;101139.97;4974329;28;20364;-86
2021/06/04 07:11:54;;;;;;;27.77;20.13;;;23.80;99.90;;;26.27;70.52;101140.03;4960498;28;20398;-85
2021/06/04 07:14:33;;;;;;;21.85;18.20;;;24.00;99.90;;;26.68;69.95;101148.59;4959842;28;20037;-85
2021/06/04 07:17:00;;;;;;;28.45;22.52;;;24.40;99.90;;;27.06;66.00;101145.78;4958479;29;20118;-83
2021/06/04 07:19:28;;;;;;;24.63;19.63;;;24.70;99.90;;;27.14;64.74;101135.66;4959147;28;20038;-85
2021/06/04 07:21:55;;;;;;;22.92;19.50;;;24.80;99.90;;;27.73;65.70;101137.72;4959723;28;20027;-85
2021/06/04 07:24:22;;;;;;;25.35;19.48;;;25.20;99.90;;;27.96;63.62;101136.50;4958406;28;20115;-86
2021/06/04 07:26:58;;;;;;;25.80;19.35;;;25.60;99.90;;;28.14;62.08;101144.47;4958646;29;20039;-87
2021/06/04 07:29:28;;;;;;;;;;;25.60;99.90;;;28.53;60.76;101131.47;4960727;28;20046;-86
2021/06/04 07:31:57;;;;;;;20.67;15.13;;;26.00;99.90;;;29.17;59.62;101133.38;4959851;29;19910;-85
2021/06/04 07:34:27;;;;;;;19.92;16.25;;;26.50;99.90;;;29.28;59.74;101132.97;4959174;28;20043;-86
2021/06/04 07:36:59;;;;;;;23.98;18.30;;;26.70;99.90;;;29.00;59.78;101136.97;4965221;29;20046;-85
2021/06/04 07:39:33;;;;;;;18.02;15.32;;;26.40;99.90;;;28.13;61.44;101142.84;4966574;28;20063;-84
2021/06/04 07:42:04;;;;;;;21.92;17.58;;;25.90;99.90;;;27.55;63.87;101131.81;4968081;29;20027;-85
2021/06/04 07:44:30;;;;;;;20.27;16.30;;;25.40;99.90;;;27.10;65.17;101139.94;4965536;28;20126;-84
2021/06/04 07:46:57;;;;;;;18.95;15.68;;;25.00;99.90;;;26.77;66.64;101139.31;4961421;29;20151;-84
2021/06/04 07:49:25;;;;;;;17.88;15.20;;;24.60;99.90;;;26.54;67.08;101137.59;4958672;29;20094;-86
2021/06/04 07:51:56;;;;;;;24.08;17.83;;;24.40;99.90;;;26.32;66.37;101139.50;4959358;28;20098;-84
2021/06/04 07:54:29;;;;;;;22.63;17.33;;;24.30;99.90;;;26.12;68.45;101135.97;4978463;28;20023;-85
2021/06/04 07:56:56;;;;;;;28.58;19.17;;;24.10;99.90;;;25.84;69.83;101137.59;4977908;28;20104;-84
2021/06/04 07:59:23;;;;;;;22.02;18.63;;;23.90;99.90;;;25.70;68.73;101135.13;4975968;28;20029;-84
2021/06/04 08:01:51;;;;;;;22.23;17.70;;;23.80;99.90;;;25.55;70.47;101140.44;4976025;28;20201;-87
2021/06/04 08:04:17;;;;;;;24.55;19.65;;;23.60;99.90;;;25.53;71.71;101144.97;4977880;28;20065;-86
2021/06/04 08:06:43;;;;;;;22.08;19.08;;;23.60;99.90;;;25.62;71.90;101148.78;4977464;28;20034;-86
2021/06/04 08:09:14;;;;;;;18.27;15.32;;;23.60;99.90;;;25.71;71.91;101141.66;4973959;28;20065;-84
2021/06/04 08:12:01;;;;;;;24.88;19.55;;;23.60;99.90;;;25.73;70.38;101144.84;4956682;29;20110;-84
2021/06/04 08:14:30;;;;;;;26.70;18.50;;;23.60;99.90;;;25.72;70.82;101141.19;4958277;28;20031;-83
2021/06/04 08:16:58;;;;;;;25.38;18.88;;;23.60;99.90;;;25.86;70.12;101142.84;4958359;28;20043;-85
2021/06/04 08:19:30;;;;;;;26.80;20.17;;;23.70;99.90;;;25.92;69.07;101143.91;4960016;28;20023;-86
2021/06/04 08:21:57;;;;;;;29.25;23.00;;;23.80;99.90;;;25.89;69.09;101139.91;4959061;28;20111;-85
2021/06/04 08:24:31;;;;;;;24.42;17.70;;;23.80;99.90;;;25.92;68.38;101139.00;4957441;28;20107;-85
2021/06/04 08:27:01;;;;;;;28.13;20.77;;;23.80;99.90;;;25.92;68.95;101143.91;4958742;28;20036;-85
2021/06/04 08:29:31;;;;;;;24.42;16.48;;;23.80;99.90;;;25.94;68.84;101147.94;4960893;28;20122;-84
2021/06/04 08:32:03;;;;;;;26.55;19.85;;;23.80;99.90;;;26.08;68.28;101140.97;4961284;28;20051;-86
2021/06/04 08:34:30;;;;;;;22.27;16.45;;;23.90;99.90;;;26.19;67.30;101142.34;4959661;28;20399;-85
2021/06/04 08:36:57;;;;;;;24.95;19.13;;;24.00;99.90;;;26.38;65.89;101142.59;4959432;29;20038;-85
2021/06/04 08:39:30;;;;;;;27.42;20.98;;;24.10;99.90;;;26.79;63.97;101147.44;4961109;28;20020;-86
2021/06/04 08:42:02;;;;;;;29.80;22.80;;;24.50;99.90;;;27.04;63.27;101145.41;4959773;28;20047;-85
2021/06/04 08:45:21;;;;;;;30.80;22.38;;;24.80;99.90;;;27.55;61.95;101136.78;4958834;28;20047;-84
2021/06/04 08:48:17;;;;;;;32.80;23.63;;;25.10;99.90;;;28.00;61.30;101139.22;4975199;28;20103;-83
2021/06/04 08:51:26;;;;;;;25.70;16.70;;;25.60;99.90;;;28.74;58.60;101136.38;4958634;29;20555;-83
2021/06/04 08:54:43;;;;;;;31.27;22.73;;;26.10;99.90;;;28.83;55.61;101138.53;4976931;28;20023;-87
2021/06/04 08:57:55;;;;;;;24.47;18.37;;;26.40;99.90;;;29.13;55.19;101134.78;4980033;28;20031;-88
2021/06/04 09:00:31;;;;;;;22.73;17.48;;;26.60;99.90;;;29.55;55.36;101144.50;4981799;28;20281;-84
2021/06/04 09:03:10;;;;;;;31.00;20.20;;;26.90;99.90;;;29.67;54.30;101143.56;4979948;28;20038;-85
2021/06/04 09:05:46;;;;;;;25.23;19.00;;;27.00;99.90;;;30.36;52.17;101140.03;4978147;28;20039;-84
2021/06/04 09:08:30;;;;;;;22.40;16.80;;;27.40;99.90;;;30.88;50.65;101140.88;4977756;28;20035;-85
2021/06/04 09:11:23;;;;;;;25.25;19.17;;;27.70;99.90;;;31.03;48.82;101141.78;4966686;28;20037;-84
2021/06/04 09:13:49;;;;;;;20.83;16.23;;;28.10;99.90;;;31.27;48.72;101136.84;4970260;28;20066;-87
2021/06/04 09:16:52;;;;;;;15.35;13.15;;;28.40;99.90;;;31.96;47.28;101135.72;4961961;28;20075;-86
2021/06/04 09:19:58;;;;;;;20.65;16.55;;;28.90;99.90;;;31.21;48.29;101130.16;4959072;28;20035;-86
2021/06/04 09:22:30;;;;;;;18.85;13.95;;;28.60;99.90;;;30.90;49.17;101133.31;4959604;29;22005;-84
2021/06/04 09:24:56;;;;;;;21.88;17.35;;;28.30;99.90;;;31.31;46.94;101132.47;4957756;28;20089;-87
2021/06/04 09:27:44;;;;;;;19.63;15.50;;;28.60;99.90;;;31.37;46.91;101131.81;4958281;28;20446;-85
2021/06/04 09:30:42;;;;;;;23.90;19.25;;;28.80;99.90;;;31.00;47.04;101129.13;4960974;28;20024;-87
2021/06/04 09:33:17;;;;;;;15.55;12.90;;;28.50;99.90;;;30.69;49.39;101135.19;4974720;28;20027;-88
2021/06/04 09:36:10;;;;;;;18.00;14.32;;;28.20;99.90;;;30.95;49.77;101137.63;4974678;28;20491;-83
2021/06/04 09:38:49;;;;;;;17.02;13.90;;;28.20;99.90;;;30.70;49.25;101131.00;4960980;28;20043;-87
2021/06/04 09:41:24;;;;;;;20.20;16.42;;;28.00;99.90;;;29.93;51.41;101128.88;4962156;29;20042;-85
2021/06/04 09:44:14;;;;;;;21.48;15.02;;;27.50;99.90;;;29.09;53.12;101134.94;4979248;28;20086;-88
2021/06/04 09:46:54;;;;;;;18.95;15.00;;;27.00;99.90;;;28.56;51.33;101136.28;4962944;29;20032;-88
2021/06/04 09:49:43;;;;;;;16.85;13.40;;;26.50;99.90;;;28.58;51.62;101127.97;4961703;29;20204;-84
2021/06/04 09:52:36;;;;;;;24.38;15.13;;;26.40;99.90;;;28.87;51.86;101136.28;4961765;28;20027;-85
2021/06/04 09:55:19;;;;;;;20.25;13.30;;;26.50;99.90;;;29.46;50.02;101130.09;4961788;28;20031;-86
2021/06/04 09:58:17;;;;;;;19.73;15.13;;;26.80;99.90;;;30.51;49.50;101126.56;4976891;28;20031;-88
2021/06/04 10:00:56;;;;;;;15.90;11.35;;;27.70;99.90;;;31.46;46.73;101137.53;4961639;29;20023;-88
2021/06/04 10:03:46;;;;;;;15.93;11.82;;;28.40;99.90;;;32.29;44.11;101139.28;4977483;28;20027;-86
2021/06/04 10:06:38;;;;;;;16.95;11.45;;;29.00;99.90;;;32.72;43.18;101126.94;4962067;28;20412;-87
2021/06/04 10:09:21;;;;;;;12.10;9.90;;;29.60;99.20;;;32.93;41.49;101115.44;4962583;28;20027;-88
2021/06/04 10:12:15;;;;;;;17.15;11.20;;;29.70;90.20;;;32.58;38.46;101115.41;4962171;28;20033;-85
2021/06/04 10:14:53;;;;;;;18.23;15.93;;;29.90;74.30;;;31.91;42.77;101114.09;4976557;28;20086;-87
2021/06/04 10:17:40;;;;;;;11.00;9.32;;;29.70;82.10;;;32.68;41.45;101111.09;4960967;29;20035;-89
2021/06/04 10:20:46;;;;;;;12.43;9.48;;;29.90;82.10;;;32.77;39.84;101108.88;4962578;28;20479;-85
2021/06/04 10:23:42;;;;;;;11.37;8.77;;;30.10;76.50;;;33.27;37.27;101105.97;4971529;28;20023;-84
2021/06/04 10:26:24;;;;;;;14.13;11.25;;;30.30;68.10;;;32.25;40.62;101104.81;4976209;28;20035;-86
2021/06/04 10:29:07;;;;;;;17.40;11.50;;;29.80;75.20;;;31.51;43.28;101099.34;4992230;28;20043;-83
2021/06/04 10:32:00;;;;;;;12.57;9.57;;;29.20;86.30;;;30.87;45.99;101101.75;4993278;28;20095;-89
2021/06/04 10:35:22;;;;;;;18.90;13.93;;;28.60;97.30;;;30.35;46.62;101092.31;4979299;28;20051;-83